Time;durP1;ratioP1;P1;durP2;ratioP2;P2;SDS_P1;SDS_P2;PMS_P1;PMS_P2;Temp;Humidity;BMP_temperature;BMP_pressure;BME280_temperature;BME280_humidity;BME280_pressure;Samples;Min_cycle;Max_cycle;Signal;HPM_P1;HPM_P2
2020/12/04 00:01:19;;;;;;;9.90;5.55;;;;;;;7.33;73.13;98248.34;5012272;28;20014;-85
2020/12/04 00:03:45;;;;;;;7.70;5.97;;;;;;;7.32;72.94;98248.41;5008406;28;20093;-85
2020/12/04 00:06:12;;;;;;;7.57;5.43;;;;;;;7.25;73.23;98245.22;5016021;28;20436;-86
2020/12/04 00:08:38;;;;;;;8.82;5.45;;;;;;;7.18;73.56;98238.53;5016702;28;20026;-84
2020/12/04 00:11:04;;;;;;;8.45;5.65;;;;;;;7.28;73.26;98237.19;5016725;28;20048;-85
2020/12/04 00:13:31;;;;;;;7.45;6.10;;;;;;;7.29;73.22;98225.72;5016358;28;20543;-84
2020/12/04 00:16:00;;;;;;;9.25;6.72;;;;;;;7.38;73.12;98222.63;5016678;28;20030;-85
2020/12/04 00:18:26;;;;;;;7.07;5.05;;;;;;;7.23;73.05;98203.16;5016326;28;20025;-85
2020/12/04 00:20:53;;;;;;;8.60;6.20;;;;;;;7.30;73.13;98198.41;5016323;28;20491;-86
2020/12/04 00:23:19;;;;;;;9.48;6.25;;;;;;;7.19;73.25;98200.72;5015998;28;20034;-86
2020/12/04 00:25:52;;;;;;;7.47;6.22;;;;;;;7.31;72.94;98192.22;5016090;28;20037;-85
2020/12/04 00:28:18;;;;;;;;;;;;;;;7.24;72.91;98196.09;5010748;28;20109;-84
2020/12/04 00:30:45;;;;;;;6.47;5.28;;;;;;;7.31;72.36;98189.59;5007304;28;19917;-85
2020/12/04 00:33:11;;;;;;;6.88;5.40;;;;;;;7.28;72.83;98189.75;5004149;28;20557;-85
2020/12/04 00:35:37;;;;;;;6.20;5.05;;;;;;;7.16;73.18;98185.09;5010309;28;20037;-85
2020/12/04 00:38:04;;;;;;;9.73;5.32;;;;;;;7.29;72.76;98180.94;5002788;28;20482;-83
2020/12/04 00:40:31;;;;;;;7.07;4.97;;;;;;;7.22;72.80;98171.63;5005112;28;20501;-85
2020/12/04 00:42:57;;;;;;;6.88;4.82;;;;;;;7.24;72.72;98159.22;5007494;28;20124;-84
2020/12/04 00:45:24;;;;;;;6.43;5.05;;;;;;;7.11;73.08;98151.09;5003434;28;20026;-85
2020/12/04 00:47:51;;;;;;;5.55;4.22;;;;;;;7.19;72.92;98153.34;5000373;28;20030;-84
2020/12/04 00:50:18;;;;;;;7.07;5.07;;;;;;;7.09;73.04;98148.53;4997560;28;20041;-85
2020/12/04 00:52:45;;;;;;;4.97;4.47;;;;;;;7.03;73.19;98143.56;4999739;28;20022;-84
2020/12/04 00:55:11;;;;;;;8.57;5.50;;;;;;;7.18;72.76;98149.00;5001238;28;20026;-84
2020/12/04 00:57:38;;;;;;;9.50;4.68;;;;;;;7.27;72.47;98135.38;4999330;28;20441;-85
2020/12/04 01:00:05;;;;;;;7.20;4.90;;;;;;;7.14;72.83;98137.78;4999253;28;20097;-85
2020/12/04 01:02:32;;;;;;;6.32;5.30;;;;;;;7.19;72.44;98127.00;5001127;28;20049;-84
2020/12/04 01:04:59;;;;;;;5.95;4.30;;;;;;;7.11;73.32;98122.97;4997352;28;20023;-84
2020/12/04 01:07:25;;;;;;;6.13;4.80;;;;;;;7.12;73.14;98121.19;5001460;28;20030;-84
2020/12/04 01:09:51;;;;;;;6.15;4.50;;;;;;;7.04;73.21;98108.41;4999414;28;20026;-85
2020/12/04 01:12:18;;;;;;;5.32;4.45;;;;;;;7.05;73.01;98110.13;5001733;28;20068;-84
2020/12/04 01:14:44;;;;;;;5.88;4.40;;;;;;;6.95;73.39;98103.59;5002457;28;20030;-84
2020/12/04 01:17:11;;;;;;;5.90;4.72;;;;;;;7.04;73.18;98097.88;5001281;28;20027;-85
2020/12/04 01:19:37;;;;;;;5.60;4.15;;;;;;;7.10;72.67;98087.06;5000300;28;20095;-85
2020/12/04 01:22:04;;;;;;;5.45;4.03;;;;;;;7.17;72.44;98084.09;5001719;28;20080;-84
2020/12/04 01:24:30;;;;;;;6.15;4.55;;;;;;;7.11;72.65;98085.25;5003516;28;20033;-86
2020/12/04 01:26:57;;;;;;;5.32;4.70;;;;;;;7.24;72.24;98085.47;5002001;28;20472;-84
2020/12/04 01:29:23;;;;;;;6.70;4.13;;;;;;;7.09;72.93;98074.81;5006017;28;20088;-85
2020/12/04 01:31:50;;;;;;;4.55;4.07;;;;;;;7.07;72.97;98068.75;4997289;28;20046;-85
2020/12/04 01:34:16;;;;;;;7.72;4.53;;;;;;;7.04;72.93;98062.78;4996979;28;20512;-85
2020/12/04 01:36:43;;;;;;;6.43;4.82;;;;;;;7.18;72.45;98068.22;5004584;28;20042;-85
2020/12/04 01:39:09;;;;;;;4.75;3.72;;;;;;;7.18;72.26;98067.34;4999361;28;20093;-85
2020/12/04 01:41:36;;;;;;;5.57;4.25;;;;;;;7.28;72.14;98064.19;5006337;28;20417;-85
2020/12/04 01:44:05;;;;;;;5.32;3.80;;;;;;;7.17;72.65;98055.97;5012682;28;20088;-84
2020/12/04 01:46:33;;;;;;;5.32;4.03;;;;;;;7.16;72.66;98042.91;5011068;28;20050;-85
2020/12/04 01:49:00;;;;;;;5.40;4.07;;;;;;;7.22;72.35;98048.69;5013163;28;20489;-86
2020/12/04 01:51:29;;;;;;;7.28;4.25;;;;;;;7.19;72.84;98042.72;5011681;28;20030;-85
2020/12/04 01:53:56;;;;;;;5.38;4.03;;;;;;;7.07;72.69;98034.53;4999951;28;20057;-85
2020/12/04 01:56:23;;;;;;;6.03;4.47;;;;;;;7.18;72.46;98036.63;5012273;28;20557;-85
2020/12/04 01:58:49;;;;;;;6.22;4.70;;;;;;;7.23;72.29;98028.50;5007945;28;20023;-86
2020/12/04 02:01:17;;;;;;;5.53;4.25;;;;;;;7.17;72.29;98026.19;5009407;28;20026;-85
2020/12/04 02:03:44;;;;;;;5.20;3.80;;;;;;;7.06;72.76;98022.28;5009642;28;20054;-85
2020/12/04 02:06:27;;;;;;;5.35;4.40;;;;;;;7.22;72.46;98030.25;5014199;28;20041;-85
2020/12/04 02:09:04;;;;;;;4.32;3.65;;;;;;;7.15;72.77;98022.75;5014367;28;20021;-85
2020/12/04 02:11:32;;;;;;;6.60;3.92;;;;;;;6.92;73.36;98011.63;5014640;28;20044;-85
2020/12/04 02:14:00;;;;;;;4.78;3.45;;;;;;;7.02;73.13;97999.69;5014183;28;20117;-84
2020/12/04 02:16:27;;;;;;;4.97;4.13;;;;;;;6.98;73.27;97987.63;5014161;28;20030;-85
2020/12/04 02:18:54;;;;;;;5.57;3.80;;;;;;;7.10;72.67;97981.72;5014042;28;20532;-84
2020/12/04 02:21:21;;;;;;;6.03;4.25;;;;;;;7.06;73.10;97969.63;5014165;28;20113;-85
2020/12/04 02:23:50;;;;;;;5.28;3.88;;;;;;;7.11;72.69;97967.63;5014065;28;20080;-85
2020/12/04 02:26:19;;;;;;;5.80;4.07;;;;;;;7.24;72.51;97967.84;5010294;28;20033;-84
2020/12/04 02:28:46;;;;;;;5.03;3.83;;;;;;;7.15;72.56;97963.03;5008880;28;20029;-85
2020/12/04 02:31:13;;;;;;;5.10;3.53;;;;;;;7.07;73.03;97949.44;5013496;28;20537;-84
2020/12/04 02:33:41;;;;;;;7.22;3.42;;;;;;;7.17;72.39;97952.44;5014172;28;20041;-84
2020/12/04 02:36:09;;;;;;;5.00;3.65;;;;;;;7.08;72.55;97952.00;5013609;28;20689;-85
2020/12/04 02:38:35;;;;;;;5.00;3.42;;;;;;;7.04;72.84;97946.94;5014095;28;20493;-85
2020/12/04 02:41:04;;;;;;;4.20;3.40;;;;;;;6.86;73.31;97952.25;5013916;28;20069;-85
2020/12/04 02:43:31;;;;;;;4.78;2.85;;;;;;;7.00;73.04;97937.53;5011074;28;20034;-85
2020/12/04 02:45:57;;;;;;;4.18;3.10;;;;;;;7.16;72.77;97932.31;5011617;28;20041;-84
2020/12/04 02:48:24;;;;;;;3.30;2.65;;;;;;;7.01;72.99;97919.00;5013746;28;20026;-84
2020/12/04 02:50:50;;;;;;;5.35;3.63;;;;;;;6.91;73.27;97912.53;5014036;28;20025;-84
2020/12/04 02:53:17;;;;;;;4.28;3.10;;;;;;;6.95;73.02;97903.53;5008299;28;20034;-84
2020/12/04 02:55:43;;;;;;;3.88;2.92;;;;;;;7.09;72.77;97893.16;5007336;28;20052;-84
2020/12/04 02:58:10;;;;;;;4.68;3.05;;;;;;;7.09;72.87;97895.78;5012062;28;20453;-84
2020/12/04 03:00:36;;;;;;;4.18;3.08;;;;;;;7.18;72.69;97898.81;5004351;28;20031;-84
2020/12/04 03:03:03;;;;;;;6.10;3.38;;;;;;;7.05;72.71;97899.50;5009354;28;20033;-84
2020/12/04 03:05:29;;;;;;;3.35;2.80;;;;;;;7.25;71.91;97887.03;5003475;28;20037;-85
2020/12/04 03:07:55;;;;;;;4.43;3.08;;;;;;;7.07;72.80;97892.38;5013521;28;20049;-84
2020/12/04 03:10:22;;;;;;;3.20;2.88;;;;;;;7.17;72.42;97876.09;5013122;28;20113;-83
2020/12/04 03:12:49;;;;;;;3.85;2.80;;;;;;;7.09;72.73;97874.72;5013277;28;20030;-84
2020/12/04 03:15:15;;;;;;;4.03;2.70;;;;;;;7.09;72.69;97876.47;5013243;28;20834;-84
2020/12/04 03:17:41;;;;;;;3.20;2.10;;;;;;;7.02;72.35;97877.75;5013428;28;20030;-84
2020/12/04 03:20:08;;;;;;;5.53;2.40;;;;;;;7.04;72.51;97887.28;5013135;28;20039;-85
2020/12/04 03:22:35;;;;;;;3.55;2.53;;;;;;;7.21;71.93;97882.88;5012887;28;20500;-84
2020/12/04 03:25:02;;;;;;;3.72;2.42;;;;;;;7.12;72.30;97858.72;5013015;28;20040;-85
2020/12/04 03:27:28;;;;;;;6.03;2.47;;;;;;;7.03;72.53;97859.25;4998723;28;20033;-84
2020/12/04 03:29:55;;;;;;;3.42;2.67;;;;;;;7.05;72.28;97861.78;5012450;28;20113;-84
2020/12/04 03:32:21;;;;;;;3.17;2.42;;;;;;;7.09;72.77;97858.91;5011353;28;20030;-85
2020/12/04 03:34:48;;;;;;;3.90;2.35;;;;;;;7.09;72.51;97853.66;5009848;28;20397;-85
2020/12/04 03:37:14;;;;;;;3.58;2.60;;;;;;;7.13;72.50;97855.19;5005527;28;20035;-85
2020/12/04 03:39:41;;;;;;;3.30;2.40;;;;;;;7.05;73.02;97843.34;5011449;28;20022;-84
2020/12/04 03:42:07;;;;;;;3.67;2.15;;;;;;;7.04;73.00;97832.00;5012049;28;20038;-84
2020/12/04 03:44:34;;;;;;;3.75;2.75;;;;;;;7.11;72.70;97846.50;5010757;28;20042;-84
2020/12/04 03:47:00;;;;;;;3.95;2.58;;;;;;;7.21;72.33;97851.28;5012079;28;20053;-84
2020/12/04 03:49:27;;;;;;;4.38;2.10;;;;;;;7.38;71.95;97848.56;5010987;28;20041;-84
2020/12/04 03:51:53;;;;;;;3.72;2.60;;;;;;;7.13;72.58;97844.66;5012389;28;20038;-85
2020/12/04 03:54:20;;;;;;;2.47;2.10;;;;;;;7.27;72.47;97843.88;5012085;28;20508;-84
2020/12/04 03:56:46;;;;;;;2.70;1.90;;;;;;;7.19;72.64;97837.34;5010929;28;20044;-84
2020/12/04 03:59:13;;;;;;;2.35;2.08;;;;;;;7.19;72.73;97838.22;5012011;28;20026;-85
2020/12/04 04:01:39;;;;;;;4.20;1.98;;;;;;;7.23;72.68;97844.16;5011098;28;20393;-84
2020/12/04 04:04:05;;;;;;;2.47;2.03;;;;;;;7.19;72.55;97824.19;5011616;28;20030;-85
2020/12/04 04:06:32;;;;;;;2.13;1.83;;;;;;;7.05;72.71;97825.81;5011043;28;20030;-85
2020/12/04 04:08:58;;;;;;;1.83;1.48;;;;;;;7.13;72.61;97826.22;5012078;28;20030;-85
2020/12/04 04:11:25;;;;;;;2.22;1.60;;;;;;;7.22;72.24;97832.75;5010438;28;20046;-85
2020/12/04 04:13:51;;;;;;;2.78;1.90;;;;;;;7.30;72.04;97834.97;5011898;28;20093;-85
2020/12/04 04:16:19;;;;;;;1.90;1.70;;;;;;;7.40;71.81;97824.78;5012600;28;20112;-84
2020/12/04 04:18:45;;;;;;;2.28;1.70;;;;;;;7.35;71.85;97816.28;5010890;28;20436;-85
2020/12/04 04:21:13;;;;;;;4.30;1.73;;;;;;;7.55;71.34;97820.44;5011801;28;20030;-85
2020/12/04 04:23:40;;;;;;;3.22;1.52;;;;;;;7.54;71.42;97822.22;5012710;28;20030;-85
2020/12/04 04:26:06;;;;;;;2.95;1.80;;;;;;;7.38;71.57;97822.22;5010898;28;20085;-84
2020/12/04 04:28:33;;;;;;;1.52;1.40;;;;;;;7.37;71.44;97828.44;5012525;28;20040;-84
2020/12/04 04:30:59;;;;;;;2.10;1.55;;;;;;;7.42;71.22;97830.81;5012510;28;20109;-85
2020/12/04 04:33:26;;;;;;;2.22;1.80;;;;;;;7.29;71.59;97849.09;5012508;28;20081;-85
2020/12/04 04:35:52;;;;;;;2.33;1.50;;;;;;;7.47;70.77;97855.13;5012380;28;20022;-85
2020/12/04 04:38:18;;;;;;;1.98;1.48;;;;;;;7.33;71.52;97845.34;5009905;28;20035;-84
2020/12/04 04:40:45;;;;;;;2.40;1.30;;;;;;;7.22;71.75;97838.03;5003273;28;20034;-84
2020/12/04 04:43:15;;;;;;;1.98;1.42;;;;;;;7.35;71.41;97830.31;5010839;28;20026;-84
2020/12/04 04:45:43;;;;;;;1.88;1.50;;;;;;;7.31;71.44;97826.13;5012549;28;20030;-86
2020/12/04 04:48:17;;;;;;;2.53;1.50;;;;;;;7.47;71.33;97822.66;5011977;28;20022;-84
2020/12/04 04:50:45;;;;;;;1.63;1.40;;;;;;;7.39;71.03;97813.41;5013167;28;20058;-85
2020/12/04 04:53:12;;;;;;;1.60;1.40;;;;;;;7.38;71.32;97806.44;5015825;28;20030;-84
2020/12/04 04:55:42;;;;;;;2.90;1.45;;;;;;;7.40;71.44;97809.84;5015979;28;20108;-85
2020/12/04 04:58:09;;;;;;;2.97;1.70;;;;;;;7.40;71.35;97824.78;5015711;28;20069;-85
2020/12/04 05:00:35;;;;;;;2.15;1.58;;;;;;;7.34;72.02;97819.84;5002836;28;20065;-85
2020/12/04 05:03:04;;;;;;;2.15;1.70;;;;;;;7.28;71.64;97813.16;5002927;28;20068;-85
2020/12/04 05:08:28;;;;;;;1.85;1.40;;;;;;;7.30;71.92;97827.06;5072237;27;20542;-86
2020/12/04 05:11:08;;;;;;;3.90;1.50;;;;;;;7.26;73.24;97812.38;5054190;28;20037;-85
2020/12/04 05:13:34;;;;;;;3.08;1.27;;;;;;;7.40;72.70;97823.00;5055285;28;20476;-86
2020/12/04 05:16:01;;;;;;;1.90;1.70;;;;;;;7.45;72.57;97818.31;5055066;28;20108;-86
2020/12/04 05:18:27;;;;;;;2.35;1.73;;;;;;;7.40;72.66;97816.88;5039019;28;20034;-85
2020/12/04 05:20:56;;;;;;;3.92;1.92;;;;;;;7.61;71.96;97809.56;5038554;28;20054;-85
2020/12/04 05:23:24;;;;;;;2.65;1.55;;;;;;;7.61;72.30;97806.91;5041065;28;20033;-85
2020/12/04 05:25:53;;;;;;;2.65;1.48;;;;;;;7.44;72.53;97795.56;5039768;28;20025;-85
2020/12/04 05:28:23;;;;;;;2.28;1.40;;;;;;;7.58;72.71;97813.22;5029906;28;20034;-88
2020/12/04 05:33:31;;;;;;;1.33;1.23;;;;;;;7.62;72.11;97803.34;5083947;28;20435;-84
2020/12/04 05:35:57;;;;;;;1.73;1.30;;;;;;;7.65;71.60;97807.59;5046170;28;20083;-85
2020/12/04 05:38:23;;;;;;;2.30;1.80;;;;;;;7.73;71.62;97808.84;5033065;28;20045;-84
2020/12/04 05:41:02;;;;;;;2.97;1.30;;;;;;;7.79;71.79;97807.66;5030819;28;20026;-85
2020/12/04 05:43:30;;;;;;;2.00;1.10;;;;;;;7.77;71.13;97810.38;5044771;28;20163;-85
2020/12/04 05:46:19;;;;;;;1.95;1.42;;;;;;;7.73;71.40;97806.22;5043072;28;20036;-85
2020/12/04 05:49:08;;;;;;;2.08;1.35;;;;;;;7.70;71.45;97811.69;5028116;28;20408;-84
2020/12/04 05:51:39;;;;;;;2.90;1.30;;;;;;;7.79;71.19;97810.31;5030517;28;20052;-85
2020/12/04 05:54:10;;;;;;;2.03;1.33;;;;;;;7.65;71.93;97813.72;5037725;28;20488;-84
2020/12/04 05:56:39;;;;;;;1.80;1.33;;;;;;;7.87;71.13;97809.84;5039790;28;20018;-85
2020/12/04 05:59:10;;;;;;;2.50;1.33;;;;;;;7.74;71.43;97807.91;5036065;28;20030;-85
2020/12/04 06:01:36;;;;;;;2.38;1.50;;;;;;;7.76;71.73;97813.09;5028504;28;20053;-86
2020/12/04 06:04:02;;;;;;;2.45;1.63;;;;;;;7.81;71.52;97815.47;5027725;28;20083;-87
2020/12/04 06:09:07;;;;;;;1.67;1.33;;;;;;;7.77;70.88;97810.38;5098134;27;20380;-83
2020/12/04 06:11:38;;;;;;;1.73;1.45;;;;;;;7.79;71.42;97815.56;5085999;28;20028;-83
2020/12/04 06:14:14;;;;;;;1.65;1.42;;;;;;;7.71;70.92;97821.28;5083870;28;20467;-84
2020/12/04 06:16:44;;;;;;;2.85;1.60;;;;;;;7.77;71.09;97820.91;5086987;22;20048;-88
2020/12/04 06:19:31;;;;;;;2.38;1.70;;;;;;;7.71;71.17;97833.59;5081072;28;20033;-91
2020/12/04 06:22:18;;;;;;;1.65;1.38;;;;;;;7.87;71.06;97833.56;5076092;28;20059;-83
2020/12/04 06:27:49;;;;;;;1.92;1.40;;;;;;;7.85;71.45;97840.72;5085990;27;20426;-79
2020/12/04 06:30:18;;;;;;;3.38;1.15;;;;;;;7.76;72.32;97842.97;5076149;28;20041;-92
2020/12/04 06:32:48;;;;;;;1.35;1.00;;;;;;;7.87;71.90;97844.97;5068171;28;20032;-91
2020/12/04 06:35:31;;;;;;;3.97;1.50;;;;;;;7.92;71.52;97848.22;5075647;28;20024;-90
2020/12/04 06:37:58;;;;;;;1.17;0.85;;;;;;;7.83;71.71;97847.88;5089759;28;20029;-91
2020/12/04 06:40:27;;;;;;;4.45;1.10;;;;;;;8.05;71.15;97848.34;5087571;28;20032;-90
2020/12/04 06:42:55;;;;;;;1.95;0.80;;;;;;;8.19;69.45;97844.06;5090618;28;20024;-91
2020/12/04 06:45:22;;;;;;;1.80;0.40;;;;;;;8.23;68.70;97861.41;5090258;28;20032;-94
2020/12/04 06:48:12;;;;;;;1.20;0.60;;;;;;;8.35;66.83;97868.59;5085697;28;20032;-86
2020/12/04 06:50:40;;;;;;;2.97;0.70;;;;;;;8.39;66.01;97867.47;5089169;28;20035;-92
2020/12/04 06:53:55;;;;;;;0.65;0.40;;;;;;;8.68;65.57;97882.53;5089842;28;20098;-96
2020/12/04 06:56:45;;;;;;;2.60;0.65;;;;;;;8.70;64.52;97884.16;5096033;22;20092;-82
2020/12/04 06:59:11;;;;;;;1.45;0.40;;;;;;;8.62;64.66;97881.09;5067006;28;20036;-90
2020/12/04 07:01:37;;;;;;;0.70;0.32;;;;;;;8.59;64.58;97889.22;5066760;28;20511;-86
2020/12/04 07:04:04;;;;;;;1.88;0.40;;;;;;;8.51;64.58;97905.53;5069109;28;20059;-92
2020/12/04 07:06:30;;;;;;;0.70;0.65;;;;;;;8.65;63.92;97899.41;5059186;28;20064;-92
2020/12/04 07:09:02;;;;;;;1.60;0.40;;;;;;;8.56;64.25;97915.78;5068911;28;20025;-91
2020/12/04 07:11:30;;;;;;;2.47;0.50;;;;;;;8.65;63.98;97915.25;5068295;28;20037;-92
2020/12/04 07:13:56;;;;;;;0.50;0.40;;;;;;;8.54;64.86;97922.97;5067942;28;20438;-92
2020/12/04 07:16:24;;;;;;;1.50;0.43;;;;;;;8.69;64.53;97942.31;5067096;28;20021;-93
2020/12/04 07:18:53;;;;;;;1.75;0.50;;;;;;;8.66;64.66;97932.78;5066452;28;20033;-90
2020/12/04 07:21:20;;;;;;;2.67;0.70;;;;;;;8.47;64.39;97955.91;5068961;28;20067;-91
2020/12/04 07:23:47;;;;;;;1.23;0.77;;;;;;;8.41;64.29;97942.09;5068945;28;20032;-92
2020/12/04 07:26:18;;;;;;;0.63;0.40;;;;;;;8.58;64.83;97941.16;5068848;28;20040;-92
2020/12/04 07:28:45;;;;;;;0.50;0.40;;;;;;;8.73;63.67;97954.38;5068768;28;20041;-90
2020/12/04 07:31:18;;;;;;;1.00;0.60;;;;;;;8.62;64.37;97951.53;5068297;28;20036;-89
2020/12/04 07:36:32;;;;;;;2.63;0.57;;;;;;;8.58;63.87;97959.63;5071716;28;20448;-92
2020/12/04 07:39:01;;;;;;;1.17;0.55;;;;;;;8.69;64.49;97959.00;5069808;28;20035;-92
2020/12/04 07:41:31;;;;;;;1.15;0.40;;;;;;;8.44;64.46;97970.09;5069469;28;20025;-91
2020/12/04 07:43:59;;;;;;;1.80;0.60;;;;;;;8.47;64.04;97969.09;5069311;28;20419;-92
2020/12/04 07:46:26;;;;;;;1.70;0.80;;;;;;;8.59;64.36;97978.94;5069786;28;20119;-87
2020/12/04 07:49:11;;;;;;;1.35;0.50;;;;;;;8.58;64.17;97993.09;5062503;28;20431;-92
2020/12/04 07:51:42;;;;;;;1.02;0.55;;;;;;;8.54;64.25;98007.41;5051990;28;20079;-90
2020/12/04 07:54:24;;;;;;;1.52;0.50;;;;;;;8.64;64.62;98026.19;5045054;28;20036;-89
2020/12/04 07:56:53;;;;;;;0.80;0.50;;;;;;;8.58;64.78;98027.38;5053079;28;20029;-85
2020/12/04 07:59:26;;;;;;;1.35;0.52;;;;;;;8.52;64.94;98015.41;5049672;28;20039;-87
2020/12/04 08:01:52;;;;;;;;;;;;;;;8.84;63.65;98019.75;5047794;28;20025;-86
2020/12/04 08:04:19;;;;;;;3.40;0.60;;;;;;;8.72;64.49;98021.31;5048439;28;20316;-87
2020/12/04 08:06:47;;;;;;;2.42;0.80;;;;;;;8.73;63.73;98030.94;5048696;28;20029;-88
2020/12/04 08:09:16;;;;;;;0.52;0.50;;;;;;;8.45;63.68;98039.53;5046130;28;20025;-86
2020/12/04 08:11:53;;;;;;;0.75;0.40;;;;;;;8.51;62.87;98050.66;5046629;28;20348;-87
2020/12/04 08:14:29;;;;;;;0.30;0.30;;;;;;;8.51;63.74;98049.78;5049489;28;20032;-88
2020/12/04 08:16:59;;;;;;;0.73;0.30;;;;;;;8.57;63.03;98066.13;5047887;28;20025;-86
2020/12/04 08:19:31;;;;;;;0.95;0.63;;;;;;;8.67;63.47;98071.75;5047528;28;20064;-86
2020/12/04 08:22:07;;;;;;;0.73;0.40;;;;;;;8.73;63.73;98087.25;5048125;28;20059;-86
2020/12/04 08:24:39;;;;;;;1.30;0.70;;;;;;;8.63;64.33;98099.25;5043220;28;20029;-87
2020/12/04 08:27:09;;;;;;;0.68;0.60;;;;;;;8.70;63.67;98103.25;5047553;28;20029;-87
2020/12/04 08:29:37;;;;;;;0.98;0.60;;;;;;;8.79;63.91;98106.31;5048053;28;20372;-89
2020/12/04 08:34:50;;;;;;;12.40;3.50;;;;;;;8.54;64.18;98107.69;5070148;28;20555;-86
2020/12/04 08:37:18;;;;;;;0.88;0.60;;;;;;;8.66;63.75;98129.88;5049751;28;20117;-87
2020/12/04 08:39:47;;;;;;;1.35;0.57;;;;;;;8.72;62.56;98118.97;5049500;28;20108;-88
2020/12/04 08:42:18;;;;;;;1.23;0.80;;;;;;;8.65;61.64;98125.53;5043632;28;20028;-87
2020/12/04 08:45:03;;;;;;;1.20;0.63;;;;;;;8.70;61.72;98139.34;5049271;28;20037;-88
2020/12/04 08:47:33;;;;;;;1.92;0.50;;;;;;;8.74;61.58;98136.44;5044933;28;20525;-88
2020/12/04 08:50:06;;;;;;;0.43;0.43;;;;;;;8.90;62.37;98146.16;5050404;28;20039;-88
2020/12/04 08:52:36;;;;;;;0.55;0.55;;;;;;;8.90;62.35;98151.44;5049637;28;20047;-86
2020/12/04 08:55:11;;;;;;;0.60;0.60;;;;;;;8.93;62.59;98153.88;5055421;28;20030;-87
2020/12/04 08:57:38;;;;;;;2.10;1.00;;;;;;;8.87;62.77;98146.31;5052209;28;20033;-88
2020/12/04 09:00:07;;;;;;;1.33;1.00;;;;;;;8.78;63.14;98152.13;5045454;28;20025;-86
2020/12/04 09:02:34;;;;;;;1.08;0.98;;;;;;;8.89;63.14;98155.84;5047984;28;20108;-86
2020/12/04 09:05:00;;;;;;;1.50;0.80;;;;;;;8.95;63.02;98165.22;5048878;28;20373;-86
2020/12/04 09:07:26;;;;;;;1.17;0.90;;;;;;;8.87;63.50;98155.09;5049477;28;20036;-88
2020/12/04 09:09:52;;;;;;;0.80;0.80;;;;;;;8.83;62.07;98165.91;5046922;28;20064;-86
2020/12/04 09:12:21;;;;;;;2.25;0.80;;;;;;;8.81;62.15;98162.50;5043310;28;20112;-86
2020/12/04 09:14:49;;;;;;;2.88;0.80;;;;;;;8.89;62.64;98176.97;5052269;28;20033;-87
2020/12/04 09:17:16;;;;;;;2.15;0.90;;;;;;;9.06;61.83;98177.84;5049922;28;20030;-87
2020/12/04 09:19:42;;;;;;;0.70;0.60;;;;;;;9.04;62.18;98180.53;5051102;28;20472;-85
2020/12/04 09:22:08;;;;;;;1.15;0.60;;;;;;;8.97;61.90;98183.63;5056152;28;20723;-87
2020/12/04 09:24:34;;;;;;;25.80;13.60;;;;;;;9.14;62.25;98190.59;5049879;28;20033;-88
2020/12/04 09:27:03;;;;;;;12.82;5.85;;;;;;;9.15;62.06;98187.03;5049638;28;20112;-81
2020/12/04 09:29:30;;;;;;;1.98;0.90;;;;;;;9.03;61.84;98194.72;5053160;28;20111;-88
2020/12/04 09:31:56;;;;;;;1.20;0.70;;;;;;;8.98;62.37;98202.00;5048191;28;20506;-89
2020/12/04 09:34:22;;;;;;;1.23;0.85;;;;;;;8.93;62.24;98204.06;5048353;28;20373;-87
2020/12/04 09:36:51;;;;;;;0.75;0.70;;;;;;;9.03;61.74;98205.28;5050405;28;20032;-88
2020/12/04 09:39:18;;;;;;;1.92;0.90;;;;;;;9.16;61.75;98215.13;5041871;28;20056;-89
2020/12/04 09:41:45;;;;;;;4.30;0.90;;;;;;;8.90;62.26;98204.25;5040822;28;20036;-86
2020/12/04 09:44:11;;;;;;;0.60;0.60;;;;;;;8.93;61.57;98214.63;5044385;28;20052;-88
2020/12/04 09:46:37;;;;;;;1.98;0.88;;;;;;;8.93;61.63;98219.06;5030815;28;20388;-87
2020/12/04 09:49:03;;;;;;;3.17;1.00;;;;;;;8.97;60.77;98234.66;5028044;28;20400;-88
2020/12/04 09:51:29;;;;;;;1.30;0.70;;;;;;;9.01;60.76;98232.69;5039598;28;20535;-83
2020/12/04 09:53:58;;;;;;;1.92;0.77;;;;;;;9.03;60.22;98226.41;5036893;28;20055;-81
2020/12/04 09:56:24;;;;;;;1.52;1.23;;;;;;;9.09;60.13;98230.47;5024546;28;20428;-86
2020/12/04 09:58:50;;;;;;;5.07;0.77;;;;;;;9.15;60.27;98234.56;5014954;28;20026;-86
2020/12/04 10:01:17;;;;;;;1.63;0.68;;;;;;;9.09;60.48;98235.75;5032387;28;20041;-88
2020/12/04 10:03:43;;;;;;;0.70;0.60;;;;;;;9.20;60.48;98235.16;5034536;28;20057;-87
2020/12/04 10:06:10;;;;;;;1.30;0.73;;;;;;;9.22;60.36;98259.69;5034127;28;20029;-88
2020/12/04 10:08:36;;;;;;;1.30;0.90;;;;;;;9.14;61.11;98254.00;5034558;28;20040;-87
2020/12/04 10:11:02;;;;;;;1.50;0.70;;;;;;;9.20;61.30;98265.06;5034051;28;20499;-87
2020/12/04 10:13:28;;;;;;;1.50;0.95;;;;;;;9.17;61.40;98249.41;5034281;28;20116;-87
2020/12/04 10:16:03;;;;;;;1.23;0.90;;;;;;;9.16;61.50;98262.66;5033870;28;20064;-87
2020/12/04 10:18:30;;;;;;;1.08;0.77;;;;;;;9.16;61.71;98270.59;5034465;28;20524;-86
2020/12/04 10:20:57;;;;;;;2.05;1.08;;;;;;;9.27;62.06;98275.28;5033373;28;20040;-86
2020/12/04 10:23:24;;;;;;;2.00;1.10;;;;;;;9.35;61.36;98270.44;5034231;28;20037;-87
2020/12/04 10:25:50;;;;;;;4.15;1.20;;;;;;;9.30;62.11;98273.34;5033595;28;20502;-86
2020/12/04 10:28:16;;;;;;;3.08;0.82;;;;;;;9.25;62.35;98288.59;5034475;28;20040;-87
2020/12/04 10:30:42;;;;;;;1.13;0.80;;;;;;;9.13;62.05;98284.00;5034659;28;20022;-87
2020/12/04 10:33:08;;;;;;;2.38;0.85;;;;;;;9.22;60.75;98283.47;5034401;28;20030;-87
2020/12/04 10:35:34;;;;;;;1.30;0.73;;;;;;;9.22;59.80;98289.63;5034456;28;20033;-88
2020/12/04 10:38:01;;;;;;;2.90;0.90;;;;;;;9.35;60.21;98289.78;5034394;28;20022;-87
2020/12/04 10:40:27;;;;;;;3.15;0.70;;;;;;;9.15;59.20;98287.41;5033696;28;20037;-86
2020/12/04 10:42:53;;;;;;;0.60;0.57;;;;;;;9.26;58.45;98294.72;5034200;28;20112;-87
2020/12/04 10:45:19;;;;;;;3.83;0.65;;;;;;;9.19;58.26;98305.63;5046890;22;21214;-83
2020/12/04 10:47:45;;;;;;;1.55;0.60;;;;;;;9.23;58.37;98290.47;5030415;28;20025;-83
2020/12/04 10:50:11;;;;;;;1.67;0.57;;;;;;;9.16;57.68;98297.00;5033595;28;20063;-82
2020/12/04 10:52:38;;;;;;;2.22;0.80;;;;;;;9.32;57.83;98308.47;5027029;28;20068;-83
2020/12/04 10:55:04;;;;;;;2.90;0.60;;;;;;;9.17;57.90;98309.28;5035842;28;20476;-83
2020/12/04 10:57:30;;;;;;;4.25;0.70;;;;;;;9.31;58.14;98306.75;5036916;28;20450;-83
2020/12/04 10:59:56;;;;;;;1.75;0.80;;;;;;;9.20;59.47;98303.84;5052954;28;20361;-84
2020/12/04 11:02:29;;;;;;;2.92;1.05;;;;;;;9.36;59.20;98312.63;5041778;28;20076;-84
2020/12/04 11:07:43;;;;;;;1.60;1.05;;;;;;;9.18;60.88;98317.16;5037542;28;20080;-83
2020/12/04 11:10:09;;;;;;;1.85;0.90;;;;;;;9.13;60.95;98313.88;5034900;28;20440;-82
2020/12/04 11:12:35;;;;;;;2.55;1.15;;;;;;;9.12;61.13;98330.69;5042395;28;20025;-84
2020/12/04 11:15:02;;;;;;;2.05;0.80;;;;;;;9.14;61.92;98333.25;5034759;28;20030;-83
2020/12/04 11:17:28;;;;;;;2.58;1.02;;;;;;;9.04;62.25;98331.09;5050995;28;20032;-84
2020/12/04 11:19:54;;;;;;;1.17;0.93;;;;;;;9.16;61.38;98339.28;5035269;28;20114;-83
2020/12/04 11:22:21;;;;;;;5.10;3.55;;;;;;;9.25;61.69;98335.31;5035893;28;20056;-82
2020/12/04 11:24:47;;;;;;;5.40;2.38;;;;;;;9.38;61.08;98337.19;5046524;28;20031;-83
2020/12/04 11:27:13;;;;;;;3.70;1.30;;;;;;;9.45;61.29;98337.69;5043400;28;20048;-82
2020/12/04 11:29:39;;;;;;;1.88;1.55;;;;;;;9.48;61.32;98348.09;5042841;28;20029;-82
2020/12/04 11:32:06;;;;;;;2.60;1.40;;;;;;;9.46;61.45;98349.09;5052384;28;20029;-83
2020/12/04 11:34:32;;;;;;;2.28;0.90;;;;;;;9.57;60.79;98346.75;5052686;28;20120;-83
2020/12/04 11:36:58;;;;;;;1.55;1.40;;;;;;;9.55;60.48;98343.31;5051274;28;20526;-82
2020/12/04 11:39:24;;;;;;;1.55;1.10;;;;;;;9.52;60.67;98341.72;5047813;28;20080;-83
2020/12/04 11:41:52;;;;;;;1.50;1.00;;;;;;;9.52;60.77;98340.84;5049026;28;20063;-83
2020/12/04 11:44:19;;;;;;;2.25;1.05;;;;;;;9.57;60.19;98338.81;5057138;28;20029;-83
2020/12/04 11:46:45;;;;;;;1.75;0.70;;;;;;;9.47;60.40;98342.88;5053969;28;20665;-82
2020/12/04 11:49:11;;;;;;;1.70;0.82;;;;;;;9.36;60.51;98333.78;5051687;28;20036;-84
2020/12/04 11:51:37;;;;;;;0.98;0.88;;;;;;;9.36;59.94;98339.06;5053204;28;20029;-83
2020/12/04 11:54:05;;;;;;;3.05;0.80;;;;;;;9.37;60.52;98338.13;5050789;28;20025;-84
2020/12/04 11:56:31;;;;;;;1.35;0.98;;;;;;;9.47;60.12;98346.41;5052941;28;20029;-83
2020/12/04 11:58:57;;;;;;;0.98;0.90;;;;;;;9.20;60.75;98356.69;5052890;28;20025;-83
2020/12/04 12:01:23;;;;;;;1.08;0.93;;;;;;;9.23;60.35;98364.44;5053209;28;20037;-83
2020/12/04 12:03:49;;;;;;;3.00;1.02;;;;;;;9.23;60.20;98357.38;5051940;28;20036;-83
2020/12/04 12:06:16;;;;;;;1.63;1.00;;;;;;;9.23;59.92;98365.31;5055634;28;20029;-84